sensor_id;sensor_type;location;lat;lon;timestamp;P1;durP1;ratioP1;P2;durP2;ratioP2
16468;SDS011;8345;50.902;6.956;2022-08-19T00:00:10;9.33;;;8.53;;
16468;SDS011;8345;50.902;6.956;2022-08-19T00:02:38;9.20;;;8.43;;
16468;SDS011;8345;50.902;6.956;2022-08-19T00:05:06;9.90;;;8.97;;
16468;SDS011;8345;50.902;6.956;2022-08-19T00:07:34;9.93;;;9.10;;
16468;SDS011;8345;50.902;6.956;2022-08-19T00:10:01;9.57;;;8.67;;
16468;SDS011;8345;50.902;6.956;2022-08-19T00:12:30;10.30;;;9.30;;
16468;SDS011;8345;50.902;6.956;2022-08-19T00:14:57;9.10;;;8.30;;
16468;SDS011;8345;50.902;6.956;2022-08-19T00:17:24;9.47;;;8.67;;
16468;SDS011;8345;50.902;6.956;2022-08-19T00:19:51;10.93;;;9.20;;
16468;SDS011;8345;50.902;6.956;2022-08-19T00:22:18;9.67;;;8.73;;
16468;SDS011;8345;50.902;6.956;2022-08-19T00:24:46;9.57;;;8.73;;
16468;SDS011;8345;50.902;6.956;2022-08-19T00:27:13;9.30;;;8.60;;
16468;SDS011;8345;50.902;6.956;2022-08-19T00:29:42;9.27;;;8.37;;
16468;SDS011;8345;50.902;6.956;2022-08-19T00:32:10;9.67;;;8.87;;
16468;SDS011;8345;50.902;6.956;2022-08-19T00:34:37;9.97;;;9.07;;
16468;SDS011;8345;50.902;6.956;2022-08-19T00:37:04;9.63;;;8.83;;
16468;SDS011;8345;50.902;6.956;2022-08-19T00:39:31;9.70;;;8.80;;
16468;SDS011;8345;50.902;6.956;2022-08-19T00:41:58;10.67;;;9.67;;
16468;SDS011;8345;50.902;6.956;2022-08-19T00:44:27;10.33;;;9.43;;
16468;SDS011;8345;50.902;6.956;2022-08-19T00:46:57;10.13;;;9.13;;
16468;SDS011;8345;50.902;6.956;2022-08-19T00:49:25;10.33;;;9.43;;
16468;SDS011;8345;50.902;6.956;2022-08-19T00:51:55;10.37;;;9.50;;
16468;SDS011;8345;50.902;6.956;2022-08-19T00:54:24;11.70;;;10.60;;
16468;SDS011;8345;50.902;6.956;2022-08-19T00:56:51;10.83;;;9.73;;
16468;SDS011;8345;50.902;6.956;2022-08-19T00:59:19;10.90;;;9.80;;
16468;SDS011;8345;50.902;6.956;2022-08-19T01:01:47;11.27;;;10.13;;
16468;SDS011;8345;50.902;6.956;2022-08-19T01:04:15;11.33;;;10.27;;
16468;SDS011;8345;50.902;6.956;2022-08-19T01:06:43;12.37;;;11.13;;
16468;SDS011;8345;50.902;6.956;2022-08-19T01:09:10;12.27;;;10.63;;
16468;SDS011;8345;50.902;6.956;2022-08-19T01:11:38;11.17;;;10.07;;
16468;SDS011;8345;50.902;6.956;2022-08-19T01:14:07;10.73;;;9.73;;
16468;SDS011;8345;50.902;6.956;2022-08-19T01:16:35;11.23;;;10.13;;
16468;SDS011;8345;50.902;6.956;2022-08-19T01:19:04;11.80;;;10.60;;
16468;SDS011;8345;50.902;6.956;2022-08-19T01:21:40;12.23;;;11.03;;
16468;SDS011;8345;50.902;6.956;2022-08-19T01:24:10;15.43;;;11.87;;
16468;SDS011;8345;50.902;6.956;2022-08-19T01:26:38;13.50;;;12.10;;
16468;SDS011;8345;50.902;6.956;2022-08-19T01:29:07;13.87;;;12.17;;
16468;SDS011;8345;50.902;6.956;2022-08-19T01:31:34;12.73;;;11.53;;
16468;SDS011;8345;50.902;6.956;2022-08-19T01:34:02;12.53;;;11.33;;
16468;SDS011;8345;50.902;6.956;2022-08-19T01:36:30;13.43;;;12.07;;
16468;SDS011;8345;50.902;6.956;2022-08-19T01:38:58;15.30;;;12.63;;
16468;SDS011;8345;50.902;6.956;2022-08-19T01:41:27;13.70;;;12.30;;
16468;SDS011;8345;50.902;6.956;2022-08-19T01:43:54;19.77;;;13.10;;
16468;SDS011;8345;50.902;6.956;2022-08-19T01:46:22;17.63;;;12.27;;
16468;SDS011;8345;50.902;6.956;2022-08-19T01:48:49;13.67;;;12.27;;
16468;SDS011;8345;50.902;6.956;2022-08-19T01:51:16;14.10;;;12.37;;
16468;SDS011;8345;50.902;6.956;2022-08-19T01:53:46;14.73;;;13.17;;
16468;SDS011;8345;50.902;6.956;2022-08-19T01:56:14;14.27;;;12.70;;
16468;SDS011;8345;50.902;6.956;2022-08-19T01:58:43;14.07;;;12.40;;
16468;SDS011;8345;50.902;6.956;2022-08-19T02:01:12;13.37;;;11.97;;
16468;SDS011;8345;50.902;6.956;2022-08-19T02:03:40;13.60;;;11.27;;
16468;SDS011;8345;50.902;6.956;2022-08-19T02:06:07;13.53;;;10.97;;
16468;SDS011;8345;50.902;6.956;2022-08-19T02:08:35;12.00;;;10.80;;
16468;SDS011;8345;50.902;6.956;2022-08-19T02:11:03;11.67;;;10.43;;
16468;SDS011;8345;50.902;6.956;2022-08-19T02:13:30;11.27;;;10.03;;
16468;SDS011;8345;50.902;6.956;2022-08-19T02:15:59;10.87;;;9.77;;
16468;SDS011;8345;50.902;6.956;2022-08-19T02:18:26;11.70;;;10.60;;
16468;SDS011;8345;50.902;6.956;2022-08-19T02:20:53;11.10;;;10.10;;
16468;SDS011;8345;50.902;6.956;2022-08-19T02:23:20;11.67;;;10.47;;
16468;SDS011;8345;50.902;6.956;2022-08-19T02:25:47;12.50;;;10.77;;
16468;SDS011;8345;50.902;6.956;2022-08-19T02:28:15;12.23;;;11.03;;
16468;SDS011;8345;50.902;6.956;2022-08-19T02:30:42;13.20;;;11.93;;
16468;SDS011;8345;50.902;6.956;2022-08-19T02:33:11;12.23;;;11.00;;
16468;SDS011;8345;50.902;6.956;2022-08-19T02:35:40;13.07;;;11.97;;
16468;SDS011;8345;50.902;6.956;2022-08-19T02:38:07;12.93;;;11.73;;
16468;SDS011;8345;50.902;6.956;2022-08-19T02:40:52;12.33;;;11.17;;
16468;SDS011;8345;50.902;6.956;2022-08-19T02:43:20;13.60;;;12.13;;
16468;SDS011;8345;50.902;6.956;2022-08-19T02:45:47;12.10;;;11.00;;
16468;SDS011;8345;50.902;6.956;2022-08-19T02:48:16;11.87;;;10.67;;
16468;SDS011;8345;50.902;6.956;2022-08-19T02:50:44;11.60;;;10.50;;
16468;SDS011;8345;50.902;6.956;2022-08-19T02:53:12;13.63;;;11.37;;
16468;SDS011;8345;50.902;6.956;2022-08-19T02:55:45;12.80;;;11.50;;
16468;SDS011;8345;50.902;6.956;2022-08-19T02:58:12;14.80;;;11.83;;
16468;SDS011;8345;50.902;6.956;2022-08-19T03:00:43;13.87;;;12.17;;
16468;SDS011;8345;50.902;6.956;2022-08-19T03:03:11;13.37;;;11.47;;
16468;SDS011;8345;50.902;6.956;2022-08-19T03:05:40;12.53;;;11.30;;
16468;SDS011;8345;50.902;6.956;2022-08-19T03:08:07;13.50;;;11.70;;
16468;SDS011;8345;50.902;6.956;2022-08-19T03:10:39;13.83;;;12.53;;
16468;SDS011;8345;50.902;6.956;2022-08-19T03:13:09;13.93;;;12.37;;
16468;SDS011;8345;50.902;6.956;2022-08-19T03:15:38;13.63;;;12.20;;
16468;SDS011;8345;50.902;6.956;2022-08-19T03:18:05;14.20;;;12.80;;
16468;SDS011;8345;50.902;6.956;2022-08-19T03:20:33;14.43;;;12.93;;
16468;SDS011;8345;50.902;6.956;2022-08-19T03:23:01;14.03;;;12.83;;
16468;SDS011;8345;50.902;6.956;2022-08-19T03:25:28;15.33;;;13.33;;
16468;SDS011;8345;50.902;6.956;2022-08-19T03:27:56;14.57;;;13.27;;
16468;SDS011;8345;50.902;6.956;2022-08-19T03:30:23;15.00;;;13.47;;
16468;SDS011;8345;50.902;6.956;2022-08-19T03:32:50;14.93;;;13.53;;
16468;SDS011;8345;50.902;6.956;2022-08-19T03:35:17;14.97;;;13.57;;
16468;SDS011;8345;50.902;6.956;2022-08-19T03:37:45;14.37;;;13.17;;
16468;SDS011;8345;50.902;6.956;2022-08-19T03:40:13;15.00;;;13.50;;
16468;SDS011;8345;50.902;6.956;2022-08-19T03:42:41;18.47;;;14.60;;
16468;SDS011;8345;50.902;6.956;2022-08-19T03:45:08;16.70;;;14.67;;
16468;SDS011;8345;50.902;6.956;2022-08-19T03:47:36;15.87;;;14.53;;
16468;SDS011;8345;50.902;6.956;2022-08-19T03:50:03;15.23;;;13.73;;
16468;SDS011;8345;50.902;6.956;2022-08-19T03:52:30;15.83;;;14.30;;
16468;SDS011;8345;50.902;6.956;2022-08-19T03:54:58;15.83;;;14.30;;
16468;SDS011;8345;50.902;6.956;2022-08-19T03:57:26;15.43;;;13.83;;
16468;SDS011;8345;50.902;6.956;2022-08-19T03:59:54;16.17;;;14.57;;
16468;SDS011;8345;50.902;6.956;2022-08-19T04:02:21;15.63;;;14.23;;
16468;SDS011;8345;50.902;6.956;2022-08-19T04:04:48;17.23;;;15.53;;
16468;SDS011;8345;50.902;6.956;2022-08-19T04:07:15;17.17;;;15.57;;
16468;SDS011;8345;50.902;6.956;2022-08-19T04:09:46;17.60;;;16.00;;
16468;SDS011;8345;50.902;6.956;2022-08-19T04:12:14;17.70;;;16.00;;
16468;SDS011;8345;50.902;6.956;2022-08-19T04:14:42;16.97;;;15.47;;
16468;SDS011;8345;50.902;6.956;2022-08-19T04:17:09;18.20;;;16.60;;
16468;SDS011;8345;50.902;6.956;2022-08-19T04:19:39;18.47;;;16.53;;
16468;SDS011;8345;50.902;6.956;2022-08-19T04:22:07;18.60;;;16.70;;
16468;SDS011;8345;50.902;6.956;2022-08-19T04:24:36;18.93;;;17.20;;
16468;SDS011;8345;50.902;6.956;2022-08-19T04:27:03;18.33;;;16.73;;
16468;SDS011;8345;50.902;6.956;2022-08-19T04:29:31;18.10;;;16.50;;
16468;SDS011;8345;50.902;6.956;2022-08-19T04:32:00;18.37;;;16.50;;
16468;SDS011;8345;50.902;6.956;2022-08-19T04:34:27;18.10;;;16.40;;
16468;SDS011;8345;50.902;6.956;2022-08-19T04:36:55;16.97;;;15.33;;
16468;SDS011;8345;50.902;6.956;2022-08-19T04:39:23;17.07;;;15.37;;
16468;SDS011;8345;50.902;6.956;2022-08-19T04:42:12;17.00;;;15.40;;
16468;SDS011;8345;50.902;6.956;2022-08-19T04:44:57;16.97;;;15.30;;
16468;SDS011;8345;50.902;6.956;2022-08-19T04:47:26;17.13;;;15.53;;
16468;SDS011;8345;50.902;6.956;2022-08-19T04:49:54;17.27;;;15.33;;
16468;SDS011;8345;50.902;6.956;2022-08-19T04:52:21;16.03;;;14.60;;
16468;SDS011;8345;50.902;6.956;2022-08-19T04:54:48;16.17;;;14.73;;
16468;SDS011;8345;50.902;6.956;2022-08-19T04:57:16;18.03;;;16.33;;
16468;SDS011;8345;50.902;6.956;2022-08-19T04:59:43;18.83;;;16.77;;
16468;SDS011;8345;50.902;6.956;2022-08-19T05:02:10;19.47;;;17.47;;
16468;SDS011;8345;50.902;6.956;2022-08-19T05:04:39;18.10;;;16.20;;
16468;SDS011;8345;50.902;6.956;2022-08-19T05:07:06;19.57;;;17.67;;
16468;SDS011;8345;50.902;6.956;2022-08-19T05:09:35;20.67;;;18.97;;
16468;SDS011;8345;50.902;6.956;2022-08-19T05:12:02;23.87;;;21.67;;
16468;SDS011;8345;50.902;6.956;2022-08-19T05:14:30;26.20;;;23.90;;
16468;SDS011;8345;50.902;6.956;2022-08-19T05:16:57;27.50;;;25.00;;
16468;SDS011;8345;50.902;6.956;2022-08-19T05:19:25;26.17;;;23.87;;
16468;SDS011;8345;50.902;6.956;2022-08-19T05:22:11;27.13;;;24.50;;
16468;SDS011;8345;50.902;6.956;2022-08-19T05:24:56;27.43;;;25.10;;
16468;SDS011;8345;50.902;6.956;2022-08-19T05:27:23;29.20;;;26.27;;
16468;SDS011;8345;50.902;6.956;2022-08-19T05:29:51;28.23;;;25.67;;
16468;SDS011;8345;50.902;6.956;2022-08-19T05:32:18;27.70;;;25.23;;
16468;SDS011;8345;50.902;6.956;2022-08-19T05:34:46;31.03;;;28.13;;
16468;SDS011;8345;50.902;6.956;2022-08-19T05:37:15;30.57;;;27.80;;
16468;SDS011;8345;50.902;6.956;2022-08-19T05:39:43;34.07;;;30.80;;
16468;SDS011;8345;50.902;6.956;2022-08-19T05:42:11;35.67;;;32.47;;
16468;SDS011;8345;50.902;6.956;2022-08-19T05:44:40;33.57;;;30.23;;
16468;SDS011;8345;50.902;6.956;2022-08-19T05:47:09;32.50;;;29.57;;
16468;SDS011;8345;50.902;6.956;2022-08-19T05:49:37;33.40;;;30.03;;
16468;SDS011;8345;50.902;6.956;2022-08-19T05:52:05;33.13;;;29.70;;
16468;SDS011;8345;50.902;6.956;2022-08-19T05:54:34;32.47;;;29.37;;
16468;SDS011;8345;50.902;6.956;2022-08-19T05:57:05;32.83;;;29.83;;
16468;SDS011;8345;50.902;6.956;2022-08-19T05:59:32;33.50;;;30.03;;
16468;SDS011;8345;50.902;6.956;2022-08-19T06:02:00;35.45;;;32.38;;
16468;SDS011;8345;50.902;6.956;2022-08-19T06:04:27;33.70;;;30.70;;
16468;SDS011;8345;50.902;6.956;2022-08-19T06:06:54;30.83;;;28.03;;
16468;SDS011;8345;50.902;6.956;2022-08-19T06:09:23;33.07;;;30.07;;
16468;SDS011;8345;50.902;6.956;2022-08-19T06:11:52;35.13;;;31.67;;
16468;SDS011;8345;50.902;6.956;2022-08-19T06:14:21;33.57;;;30.60;;
16468;SDS011;8345;50.902;6.956;2022-08-19T06:16:48;35.73;;;32.33;;
16468;SDS011;8345;50.902;6.956;2022-08-19T06:19:17;34.50;;;31.53;;
16468;SDS011;8345;50.902;6.956;2022-08-19T06:21:46;35.73;;;32.33;;
16468;SDS011;8345;50.902;6.956;2022-08-19T06:24:14;35.33;;;31.93;;
16468;SDS011;8345;50.902;6.956;2022-08-19T06:26:42;36.23;;;32.67;;
16468;SDS011;8345;50.902;6.956;2022-08-19T06:29:12;34.97;;;31.67;;
16468;SDS011;8345;50.902;6.956;2022-08-19T06:31:41;34.90;;;31.60;;
16468;SDS011;8345;50.902;6.956;2022-08-19T06:34:09;34.97;;;31.80;;
16468;SDS011;8345;50.902;6.956;2022-08-19T06:36:37;35.67;;;32.30;;
16468;SDS011;8345;50.902;6.956;2022-08-19T06:39:05;34.90;;;31.80;;
16468;SDS011;8345;50.902;6.956;2022-08-19T06:41:34;34.53;;;31.23;;
16468;SDS011;8345;50.902;6.956;2022-08-19T06:44:02;35.90;;;32.70;;
16468;SDS011;8345;50.902;6.956;2022-08-19T06:46:30;33.43;;;30.50;;
16468;SDS011;8345;50.902;6.956;2022-08-19T06:48:58;32.60;;;29.63;;
16468;SDS011;8345;50.902;6.956;2022-08-19T06:51:25;32.37;;;29.53;;
16468;SDS011;8345;50.902;6.956;2022-08-19T06:53:53;35.40;;;32.00;;
16468;SDS011;8345;50.902;6.956;2022-08-19T06:56:21;35.03;;;31.53;;
16468;SDS011;8345;50.902;6.956;2022-08-19T06:58:50;32.07;;;29.07;;
16468;SDS011;8345;50.902;6.956;2022-08-19T07:01:18;33.70;;;30.60;;
16468;SDS011;8345;50.902;6.956;2022-08-19T07:03:47;33.27;;;30.07;;
16468;SDS011;8345;50.902;6.956;2022-08-19T07:06:15;32.10;;;29.27;;
16468;SDS011;8345;50.902;6.956;2022-08-19T07:08:45;32.03;;;28.93;;
16468;SDS011;8345;50.902;6.956;2022-08-19T07:11:13;27.87;;;25.47;;
16468;SDS011;8345;50.902;6.956;2022-08-19T07:13:42;30.47;;;27.27;;
16468;SDS011;8345;50.902;6.956;2022-08-19T07:16:11;30.50;;;27.60;;
16468;SDS011;8345;50.902;6.956;2022-08-19T07:18:38;26.67;;;23.93;;
16468;SDS011;8345;50.902;6.956;2022-08-19T07:21:08;28.90;;;26.10;;
16468;SDS011;8345;50.902;6.956;2022-08-19T07:23:35;24.57;;;22.07;;
16468;SDS011;8345;50.902;6.956;2022-08-19T07:26:04;28.83;;;26.00;;
16468;SDS011;8345;50.902;6.956;2022-08-19T07:28:31;24.67;;;22.13;;
16468;SDS011;8345;50.902;6.956;2022-08-19T07:30:58;21.67;;;19.37;;
16468;SDS011;8345;50.902;6.956;2022-08-19T07:33:28;24.47;;;22.10;;
16468;SDS011;8345;50.902;6.956;2022-08-19T07:35:57;22.23;;;20.27;;
16468;SDS011;8345;50.902;6.956;2022-08-19T07:38:26;23.90;;;21.43;;
16468;SDS011;8345;50.902;6.956;2022-08-19T07:40:53;25.03;;;22.47;;
16468;SDS011;8345;50.902;6.956;2022-08-19T07:43:20;21.33;;;19.10;;
16468;SDS011;8345;50.902;6.956;2022-08-19T07:45:50;24.20;;;21.70;;
16468;SDS011;8345;50.902;6.956;2022-08-19T07:48:21;23.53;;;21.23;;
16468;SDS011;8345;50.902;6.956;2022-08-19T07:50:50;29.07;;;26.30;;
16468;SDS011;8345;50.902;6.956;2022-08-19T07:53:17;28.47;;;25.67;;
16468;SDS011;8345;50.902;6.956;2022-08-19T07:55:46;24.33;;;22.03;;
16468;SDS011;8345;50.902;6.956;2022-08-19T07:58:14;26.07;;;23.57;;
16468;SDS011;8345;50.902;6.956;2022-08-19T08:00:42;32.30;;;29.10;;
16468;SDS011;8345;50.902;6.956;2022-08-19T08:03:09;27.33;;;24.52;;
16468;SDS011;8345;50.902;6.956;2022-08-19T08:05:37;32.67;;;29.40;;
16468;SDS011;8345;50.902;6.956;2022-08-19T08:08:22;33.00;;;29.77;;
16468;SDS011;8345;50.902;6.956;2022-08-19T08:11:08;32.83;;;29.57;;
16468;SDS011;8345;50.902;6.956;2022-08-19T08:13:36;33.17;;;29.93;;
16468;SDS011;8345;50.902;6.956;2022-08-19T08:16:03;33.63;;;30.33;;
16468;SDS011;8345;50.902;6.956;2022-08-19T08:18:32;35.40;;;31.80;;
16468;SDS011;8345;50.902;6.956;2022-08-19T08:21:06;31.80;;;28.70;;
16468;SDS011;8345;50.902;6.956;2022-08-19T08:23:34;36.50;;;32.87;;
16468;SDS011;8345;50.902;6.956;2022-08-19T08:26:01;36.47;;;32.73;;
16468;SDS011;8345;50.902;6.956;2022-08-19T08:28:31;38.10;;;34.27;;
16468;SDS011;8345;50.902;6.956;2022-08-19T08:30:58;38.00;;;34.23;;
16468;SDS011;8345;50.902;6.956;2022-08-19T08:33:27;37.03;;;33.07;;
16468;SDS011;8345;50.902;6.956;2022-08-19T08:35:56;38.70;;;33.83;;
16468;SDS011;8345;50.902;6.956;2022-08-19T08:38:23;28.10;;;25.03;;
16468;SDS011;8345;50.902;6.956;2022-08-19T08:40:51;28.37;;;25.47;;
16468;SDS011;8345;50.902;6.956;2022-08-19T08:43:23;29.00;;;25.90;;
16468;SDS011;8345;50.902;6.956;2022-08-19T08:45:55;35.50;;;31.57;;
16468;SDS011;8345;50.902;6.956;2022-08-19T08:48:27;30.23;;;26.13;;
16468;SDS011;8345;50.902;6.956;2022-08-19T08:50:57;28.23;;;25.17;;
16468;SDS011;8345;50.902;6.956;2022-08-19T08:53:25;29.97;;;26.77;;
16468;SDS011;8345;50.902;6.956;2022-08-19T08:55:53;30.77;;;27.60;;
16468;SDS011;8345;50.902;6.956;2022-08-19T08:58:24;30.53;;;27.53;;
16468;SDS011;8345;50.902;6.956;2022-08-19T09:00:52;37.07;;;33.23;;
16468;SDS011;8345;50.902;6.956;2022-08-19T09:03:21;31.75;;;28.42;;
16468;SDS011;8345;50.902;6.956;2022-08-19T09:05:53;38.10;;;34.03;;
16468;SDS011;8345;50.902;6.956;2022-08-19T09:08:23;31.98;;;28.55;;
16468;SDS011;8345;50.902;6.956;2022-08-19T09:10:54;34.22;;;30.73;;
16468;SDS011;8345;50.902;6.956;2022-08-19T09:13:23;35.38;;;31.67;;
16468;SDS011;8345;50.902;6.956;2022-08-19T09:15:56;38.65;;;34.55;;
16468;SDS011;8345;50.902;6.956;2022-08-19T09:18:25;35.53;;;32.17;;
16468;SDS011;8345;50.902;6.956;2022-08-19T09:20:53;38.78;;;34.65;;
16468;SDS011;8345;50.902;6.956;2022-08-19T09:23:21;36.13;;;32.55;;
16468;SDS011;8345;50.902;6.956;2022-08-19T09:25:49;34.67;;;31.08;;
16468;SDS011;8345;50.902;6.956;2022-08-19T09:28:16;30.00;;;27.00;;
16468;SDS011;8345;50.902;6.956;2022-08-19T09:30:43;26.90;;;24.08;;
16468;SDS011;8345;50.902;6.956;2022-08-19T09:33:11;31.75;;;28.75;;
16468;SDS011;8345;50.902;6.956;2022-08-19T09:35:40;35.60;;;31.98;;
16468;SDS011;8345;50.902;6.956;2022-08-19T09:38:07;24.05;;;21.75;;
16468;SDS011;8345;50.902;6.956;2022-08-19T09:40:34;26.30;;;23.67;;
16468;SDS011;8345;50.902;6.956;2022-08-19T09:43:01;26.27;;;23.80;;
16468;SDS011;8345;50.902;6.956;2022-08-19T09:45:30;21.80;;;19.52;;
16468;SDS011;8345;50.902;6.956;2022-08-19T09:47:57;20.98;;;18.98;;
16468;SDS011;8345;50.902;6.956;2022-08-19T09:50:24;22.00;;;19.92;;
16468;SDS011;8345;50.902;6.956;2022-08-19T09:52:53;30.60;;;27.63;;
16468;SDS011;8345;50.902;6.956;2022-08-19T09:55:20;22.95;;;20.70;;
16468;SDS011;8345;50.902;6.956;2022-08-19T09:57:47;22.08;;;19.88;;
16468;SDS011;8345;50.902;6.956;2022-08-19T10:00:14;20.85;;;18.95;;
16468;SDS011;8345;50.902;6.956;2022-08-19T10:02:42;16.30;;;14.80;;
16468;SDS011;8345;50.902;6.956;2022-08-19T10:05:09;22.88;;;20.85;;
16468;SDS011;8345;50.902;6.956;2022-08-19T10:07:55;16.63;;;15.13;;
16468;SDS011;8345;50.902;6.956;2022-08-19T10:10:22;18.25;;;16.48;;
16468;SDS011;8345;50.902;6.956;2022-08-19T10:12:50;17.45;;;15.85;;
16468;SDS011;8345;50.902;6.956;2022-08-19T10:15:17;14.38;;;13.00;;
16468;SDS011;8345;50.902;6.956;2022-08-19T10:17:46;18.67;;;17.00;;
16468;SDS011;8345;50.902;6.956;2022-08-19T10:20:13;22.73;;;20.65;;
16468;SDS011;8345;50.902;6.956;2022-08-19T10:22:40;17.30;;;15.65;;
16468;SDS011;8345;50.902;6.956;2022-08-19T10:25:09;22.38;;;20.10;;
16468;SDS011;8345;50.902;6.956;2022-08-19T10:27:41;19.48;;;17.75;;
16468;SDS011;8345;50.902;6.956;2022-08-19T10:30:09;16.70;;;15.15;;
16468;SDS011;8345;50.902;6.956;2022-08-19T10:32:36;18.50;;;16.67;;
16468;SDS011;8345;50.902;6.956;2022-08-19T10:35:04;17.65;;;15.93;;
16468;SDS011;8345;50.902;6.956;2022-08-19T10:37:33;38.05;;;30.42;;
16468;SDS011;8345;50.902;6.956;2022-08-19T10:40:00;19.90;;;17.92;;
16468;SDS011;8345;50.902;6.956;2022-08-19T10:42:29;17.02;;;15.43;;
16468;SDS011;8345;50.902;6.956;2022-08-19T10:44:57;19.30;;;17.50;;
16468;SDS011;8345;50.902;6.956;2022-08-19T10:47:24;17.23;;;15.43;;
16468;SDS011;8345;50.902;6.956;2022-08-19T10:49:51;17.77;;;16.20;;
16468;SDS011;8345;50.902;6.956;2022-08-19T10:52:37;14.60;;;13.07;;
16468;SDS011;8345;50.902;6.956;2022-08-19T10:55:05;17.52;;;15.75;;
16468;SDS011;8345;50.902;6.956;2022-08-19T10:57:52;16.63;;;15.15;;
16468;SDS011;8345;50.902;6.956;2022-08-19T11:00:20;15.27;;;13.98;;
16468;SDS011;8345;50.902;6.956;2022-08-19T11:02:47;14.82;;;13.63;;
16468;SDS011;8345;50.902;6.956;2022-08-19T11:05:15;17.20;;;15.57;;
16468;SDS011;8345;50.902;6.956;2022-08-19T11:07:43;20.58;;;18.58;;
16468;SDS011;8345;50.902;6.956;2022-08-19T11:10:11;16.30;;;14.63;;
16468;SDS011;8345;50.902;6.956;2022-08-19T11:12:39;18.85;;;17.25;;
16468;SDS011;8345;50.902;6.956;2022-08-19T11:15:08;19.45;;;17.75;;
16468;SDS011;8345;50.902;6.956;2022-08-19T11:17:36;16.73;;;15.25;;
16468;SDS011;8345;50.902;6.956;2022-08-19T11:20:06;20.92;;;18.95;;
16468;SDS011;8345;50.902;6.956;2022-08-19T11:22:34;22.05;;;19.17;;
16468;SDS011;8345;50.902;6.956;2022-08-19T11:25:01;17.60;;;16.08;;
16468;SDS011;8345;50.902;6.956;2022-08-19T11:27:29;17.48;;;15.80;;
16468;SDS011;8345;50.902;6.956;2022-08-19T11:29:56;17.38;;;15.80;;
16468;SDS011;8345;50.902;6.956;2022-08-19T11:32:25;16.10;;;14.52;;
16468;SDS011;8345;50.902;6.956;2022-08-19T11:34:52;16.58;;;15.13;;
16468;SDS011;8345;50.902;6.956;2022-08-19T11:37:19;15.63;;;14.15;;
16468;SDS011;8345;50.902;6.956;2022-08-19T11:39:47;12.80;;;11.60;;
16468;SDS011;8345;50.902;6.956;2022-08-19T11:42:14;15.38;;;14.07;;
16468;SDS011;8345;50.902;6.956;2022-08-19T11:44:59;14.85;;;13.45;;
16468;SDS011;8345;50.902;6.956;2022-08-19T11:47:30;15.73;;;14.52;;
16468;SDS011;8345;50.902;6.956;2022-08-19T11:49:57;15.18;;;13.77;;
16468;SDS011;8345;50.902;6.956;2022-08-19T11:52:25;14.70;;;13.40;;
16468;SDS011;8345;50.902;6.956;2022-08-19T11:54:52;16.10;;;14.43;;
16468;SDS011;8345;50.902;6.956;2022-08-19T11:57:19;13.95;;;12.55;;
16468;SDS011;8345;50.902;6.956;2022-08-19T11:59:49;14.68;;;13.25;;
16468;SDS011;8345;50.902;6.956;2022-08-19T12:02:17;16.15;;;14.48;;
16468;SDS011;8345;50.902;6.956;2022-08-19T12:04:46;15.93;;;14.52;;
16468;SDS011;8345;50.902;6.956;2022-08-19T12:07:13;14.98;;;13.27;;
16468;SDS011;8345;50.902;6.956;2022-08-19T12:09:40;14.90;;;13.70;;
16468;SDS011;8345;50.902;6.956;2022-08-19T12:12:08;15.65;;;14.02;;
16468;SDS011;8345;50.902;6.956;2022-08-19T12:14:35;12.77;;;11.68;;
16468;SDS011;8345;50.902;6.956;2022-08-19T12:17:02;13.73;;;12.63;;
16468;SDS011;8345;50.902;6.956;2022-08-19T12:19:32;12.25;;;11.25;;
16468;SDS011;8345;50.902;6.956;2022-08-19T12:22:02;12.07;;;10.98;;
16468;SDS011;8345;50.902;6.956;2022-08-19T12:24:31;11.25;;;10.25;;
16468;SDS011;8345;50.902;6.956;2022-08-19T12:26:58;13.82;;;12.52;;
16468;SDS011;8345;50.902;6.956;2022-08-19T12:29:27;13.05;;;11.82;;
16468;SDS011;8345;50.902;6.956;2022-08-19T12:31:55;12.48;;;11.35;;
16468;SDS011;8345;50.902;6.956;2022-08-19T12:34:27;12.98;;;11.60;;
16468;SDS011;8345;50.902;6.956;2022-08-19T12:36:56;11.27;;;10.38;;
16468;SDS011;8345;50.902;6.956;2022-08-19T12:39:24;10.55;;;9.52;;
16468;SDS011;8345;50.902;6.956;2022-08-19T12:41:52;9.70;;;8.90;;
16468;SDS011;8345;50.902;6.956;2022-08-19T12:44:19;9.98;;;9.18;;
16468;SDS011;8345;50.902;6.956;2022-08-19T12:46:46;10.10;;;9.20;;
16468;SDS011;8345;50.902;6.956;2022-08-19T12:49:14;9.95;;;9.02;;
16468;SDS011;8345;50.902;6.956;2022-08-19T12:51:42;9.52;;;8.75;;
16468;SDS011;8345;50.902;6.956;2022-08-19T12:54:09;10.35;;;9.45;;
16468;SDS011;8345;50.902;6.956;2022-08-19T12:56:38;10.18;;;9.27;;
16468;SDS011;8345;50.902;6.956;2022-08-19T12:59:06;12.05;;;11.05;;
16468;SDS011;8345;50.902;6.956;2022-08-19T13:01:33;12.75;;;11.60;;
16468;SDS011;8345;50.902;6.956;2022-08-19T13:04:01;13.27;;;12.13;;
16468;SDS011;8345;50.902;6.956;2022-08-19T13:06:28;13.52;;;12.35;;
16468;SDS011;8345;50.902;6.956;2022-08-19T13:08:55;11.27;;;10.30;;
16468;SDS011;8345;50.902;6.956;2022-08-19T13:11:22;12.43;;;11.27;;
16468;SDS011;8345;50.902;6.956;2022-08-19T13:13:52;11.32;;;10.32;;
16468;SDS011;8345;50.902;6.956;2022-08-19T13:16:20;11.15;;;10.15;;
16468;SDS011;8345;50.902;6.956;2022-08-19T13:18:47;11.30;;;10.30;;
16468;SDS011;8345;50.902;6.956;2022-08-19T13:21:17;11.60;;;10.50;;
16468;SDS011;8345;50.902;6.956;2022-08-19T13:23:46;11.02;;;10.07;;
16468;SDS011;8345;50.902;6.956;2022-08-19T13:26:14;9.70;;;8.90;;
16468;SDS011;8345;50.902;6.956;2022-08-19T13:28:42;10.55;;;9.52;;
16468;SDS011;8345;50.902;6.956;2022-08-19T13:31:30;9.77;;;8.98;;
16468;SDS011;8345;50.902;6.956;2022-08-19T13:34:15;10.35;;;9.35;;
16468;SDS011;8345;50.902;6.956;2022-08-19T13:36:42;11.00;;;9.93;;
16468;SDS011;8345;50.902;6.956;2022-08-19T13:39:09;10.90;;;9.88;;
16468;SDS011;8345;50.902;6.956;2022-08-19T13:41:37;9.75;;;8.82;;
16468;SDS011;8345;50.902;6.956;2022-08-19T13:44:10;10.05;;;9.15;;
16468;SDS011;8345;50.902;6.956;2022-08-19T13:49:10;8.73;;;8.02;;
16468;SDS011;8345;50.902;6.956;2022-08-19T13:51:40;10.43;;;9.43;;
16468;SDS011;8345;50.902;6.956;2022-08-19T13:54:08;9.75;;;8.75;;
16468;SDS011;8345;50.902;6.956;2022-08-19T13:56:35;11.40;;;10.27;;
16468;SDS011;8345;50.902;6.956;2022-08-19T13:59:06;9.80;;;9.00;;
16468;SDS011;8345;50.902;6.956;2022-08-19T14:01:33;9.48;;;8.23;;
16468;SDS011;8345;50.902;6.956;2022-08-19T14:04:00;10.25;;;9.20;;
16468;SDS011;8345;50.902;6.956;2022-08-19T14:06:29;9.85;;;8.85;;
16468;SDS011;8345;50.902;6.956;2022-08-19T14:08:56;9.65;;;8.77;;
16468;SDS011;8345;50.902;6.956;2022-08-19T14:11:23;9.80;;;8.90;;
16468;SDS011;8345;50.902;6.956;2022-08-19T14:13:51;10.02;;;8.15;;
16468;SDS011;8345;50.902;6.956;2022-08-19T14:16:18;8.90;;;8.07;;
16468;SDS011;8345;50.902;6.956;2022-08-19T14:18:46;9.05;;;8.25;;
16468;SDS011;8345;50.902;6.956;2022-08-19T14:21:14;9.60;;;8.60;;
16468;SDS011;8345;50.902;6.956;2022-08-19T14:23:43;10.30;;;8.52;;
16468;SDS011;8345;50.902;6.956;2022-08-19T14:26:12;8.40;;;7.53;;
16468;SDS011;8345;50.902;6.956;2022-08-19T14:28:40;9.38;;;8.57;;
16468;SDS011;8345;50.902;6.956;2022-08-19T14:31:07;8.95;;;8.15;;
16468;SDS011;8345;50.902;6.956;2022-08-19T14:33:35;8.77;;;7.97;;
16468;SDS011;8345;50.902;6.956;2022-08-19T14:36:02;8.40;;;7.70;;
16468;SDS011;8345;50.902;6.956;2022-08-19T14:38:30;8.98;;;8.00;;
16468;SDS011;8345;50.902;6.956;2022-08-19T14:41:10;9.48;;;8.57;;
16468;SDS011;8345;50.902;6.956;2022-08-19T14:43:38;8.48;;;7.68;;
16468;SDS011;8345;50.902;6.956;2022-08-19T14:46:05;8.35;;;7.65;;
16468;SDS011;8345;50.902;6.956;2022-08-19T14:48:33;8.60;;;7.75;;